sensor_id;sensor_type;location;lat;lon;timestamp;pressure;altitude;pressure_sealevel;temperature;humidity
50682;BME280;36779;52.168;20.878;2023-04-06T00:01:14;101103.65;;;0.67;59.25
50682;BME280;36779;52.168;20.878;2023-04-06T00:03:43;101102.27;;;0.67;59.25
50682;BME280;36779;52.168;20.878;2023-04-06T00:06:11;101100.21;;;0.66;59.22
50682;BME280;36779;52.168;20.878;2023-04-06T00:08:41;101096.96;;;0.65;59.30
50682;BME280;36779;52.168;20.878;2023-04-06T00:11:11;101097.00;;;0.64;59.16
50682;BME280;36779;52.168;20.878;2023-04-06T00:13:45;101093.21;;;0.63;59.19
50682;BME280;36779;52.168;20.878;2023-04-06T00:16:13;101094.30;;;0.62;59.18
50682;BME280;36779;52.168;20.878;2023-04-06T00:18:44;101096.31;;;0.61;59.16
50682;BME280;36779;52.168;20.878;2023-04-06T00:21:13;101094.09;;;0.59;59.29
50682;BME280;36779;52.168;20.878;2023-04-06T00:23:42;101090.94;;;0.60;59.23
50682;BME280;36779;52.168;20.878;2023-04-06T00:26:10;101088.84;;;0.59;59.22
50682;BME280;36779;52.168;20.878;2023-04-06T00:28:44;101085.52;;;0.59;59.28
50682;BME280;36779;52.168;20.878;2023-04-06T00:31:16;101084.99;;;0.59;59.20
50682;BME280;36779;52.168;20.878;2023-04-06T00:33:44;101084.27;;;0.60;59.35
50682;BME280;36779;52.168;20.878;2023-04-06T00:36:11;101081.30;;;0.60;59.24
50682;BME280;36779;52.168;20.878;2023-04-06T00:38:41;101081.08;;;0.61;59.29
50682;BME280;36779;52.168;20.878;2023-04-06T00:41:09;101077.72;;;0.62;59.32
50682;BME280;36779;52.168;20.878;2023-04-06T00:43:44;101079.97;;;0.62;59.28
50682;BME280;36779;52.168;20.878;2023-04-06T00:46:12;101075.80;;;0.61;59.28
50682;BME280;36779;52.168;20.878;2023-04-06T00:48:44;101073.35;;;0.61;59.22
50682;BME280;36779;52.168;20.878;2023-04-06T00:51:11;101073.54;;;0.61;59.28
50682;BME280;36779;52.168;20.878;2023-04-06T00:53:42;101071.25;;;0.61;59.29
50682;BME280;36779;52.168;20.878;2023-04-06T00:56:11;101072.80;;;0.62;59.27
50682;BME280;36779;52.168;20.878;2023-04-06T00:58:48;101069.83;;;0.62;59.26
50682;BME280;36779;52.168;20.878;2023-04-06T01:01:16;101070.16;;;0.62;59.40
50682;BME280;36779;52.168;20.878;2023-04-06T01:03:45;101072.08;;;0.62;59.27
50682;BME280;36779;52.168;20.878;2023-04-06T01:06:16;101066.66;;;0.62;59.32
50682;BME280;36779;52.168;20.878;2023-04-06T01:08:46;101068.02;;;0.63;59.24
50682;BME280;36779;52.168;20.878;2023-04-06T01:11:23;101067.14;;;0.63;59.22
50682;BME280;36779;52.168;20.878;2023-04-06T01:13:52;101064.15;;;0.63;59.24
50682;BME280;36779;52.168;20.878;2023-04-06T01:16:28;101068.86;;;0.64;59.29
50682;BME280;36779;52.168;20.878;2023-04-06T01:19:09;101065.88;;;0.64;59.27
50682;BME280;36779;52.168;20.878;2023-04-06T01:21:39;101062.66;;;0.65;59.35
50682;BME280;36779;52.168;20.878;2023-04-06T01:24:28;101061.63;;;0.65;59.32
50682;BME280;36779;52.168;20.878;2023-04-06T01:27:02;101057.74;;;0.65;59.22
50682;BME280;36779;52.168;20.878;2023-04-06T01:29:42;101053.58;;;0.64;59.27
50682;BME280;36779;52.168;20.878;2023-04-06T01:32:11;101048.35;;;0.64;59.36
50682;BME280;36779;52.168;20.878;2023-04-06T01:34:46;101051.18;;;0.64;59.23
50682;BME280;36779;52.168;20.878;2023-04-06T01:37:14;101047.00;;;0.63;59.27
50682;BME280;36779;52.168;20.878;2023-04-06T01:39:43;101050.86;;;0.63;59.18
50682;BME280;36779;52.168;20.878;2023-04-06T01:42:14;101046.14;;;0.63;59.22
50682;BME280;36779;52.168;20.878;2023-04-06T01:44:43;101047.89;;;0.63;59.30
50682;BME280;36779;52.168;20.878;2023-04-06T01:47:14;101046.55;;;0.62;59.28
50682;BME280;36779;52.168;20.878;2023-04-06T01:49:43;101045.88;;;0.62;59.25
50682;BME280;36779;52.168;20.878;2023-04-06T01:52:10;101041.20;;;0.61;59.12
50682;BME280;36779;52.168;20.878;2023-04-06T01:54:39;101039.10;;;0.61;59.29
50682;BME280;36779;52.168;20.878;2023-04-06T01:57:14;101035.96;;;0.61;59.24
50682;BME280;36779;52.168;20.878;2023-04-06T01:59:46;101038.25;;;0.60;59.28
50682;BME280;36779;52.168;20.878;2023-04-06T02:02:20;101037.02;;;0.60;59.34
50682;BME280;36779;52.168;20.878;2023-04-06T02:04:56;101035.96;;;0.61;59.32
50682;BME280;36779;52.168;20.878;2023-04-06T02:07:25;101033.48;;;0.61;59.29
50682;BME280;36779;52.168;20.878;2023-04-06T02:09:54;101030.04;;;0.60;59.29
50682;BME280;36779;52.168;20.878;2023-04-06T02:12:26;101027.06;;;0.60;59.29
50682;BME280;36779;52.168;20.878;2023-04-06T02:14:54;101024.44;;;0.60;59.23
50682;BME280;36779;52.168;20.878;2023-04-06T02:17:23;101024.64;;;0.59;59.20
50682;BME280;36779;52.168;20.878;2023-04-06T02:19:50;101023.95;;;0.59;59.30
50682;BME280;36779;52.168;20.878;2023-04-06T02:22:18;101020.85;;;0.59;59.22
50682;BME280;36779;52.168;20.878;2023-04-06T02:24:46;101021.04;;;0.58;59.25
50682;BME280;36779;52.168;20.878;2023-04-06T02:27:14;101019.04;;;0.57;59.28
50682;BME280;36779;52.168;20.878;2023-04-06T02:29:46;101018.92;;;0.55;59.20
50682;BME280;36779;52.168;20.878;2023-04-06T02:32:14;101016.55;;;0.54;59.35
50682;BME280;36779;52.168;20.878;2023-04-06T02:34:44;101016.23;;;0.53;59.23
50682;BME280;36779;52.168;20.878;2023-04-06T02:37:12;101013.17;;;0.52;59.26
50682;BME280;36779;52.168;20.878;2023-04-06T02:39:40;101012.21;;;0.50;59.27
50682;BME280;36779;52.168;20.878;2023-04-06T02:42:08;101007.61;;;0.48;59.23
50682;BME280;36779;52.168;20.878;2023-04-06T02:44:36;101008.09;;;0.45;59.27
50682;BME280;36779;52.168;20.878;2023-04-06T02:47:04;101010.14;;;0.43;59.26
50682;BME280;36779;52.168;20.878;2023-04-06T02:49:32;101008.48;;;0.41;59.34
50682;BME280;36779;52.168;20.878;2023-04-06T02:52:00;101007.85;;;0.40;59.40
50682;BME280;36779;52.168;20.878;2023-04-06T02:54:31;101006.34;;;0.39;59.34
50682;BME280;36779;52.168;20.878;2023-04-06T02:57:00;101002.48;;;0.36;59.30
50682;BME280;36779;52.168;20.878;2023-04-06T02:59:40;101007.83;;;0.34;59.34
50682;BME280;36779;52.168;20.878;2023-04-06T03:02:14;101010.20;;;0.32;59.38
50682;BME280;36779;52.168;20.878;2023-04-06T03:04:43;101015.88;;;0.31;59.47
50682;BME280;36779;52.168;20.878;2023-04-06T03:07:20;101014.75;;;0.29;59.42
50682;BME280;36779;52.168;20.878;2023-04-06T03:09:47;101013.45;;;0.27;59.42
50682;BME280;36779;52.168;20.878;2023-04-06T03:12:17;101014.89;;;0.26;59.45
50682;BME280;36779;52.168;20.878;2023-04-06T03:15:05;101013.73;;;0.25;59.41
50682;BME280;36779;52.168;20.878;2023-04-06T03:17:34;101012.60;;;0.23;59.44
50682;BME280;36779;52.168;20.878;2023-04-06T03:20:03;101015.44;;;0.22;59.49
50682;BME280;36779;52.168;20.878;2023-04-06T03:22:33;101016.38;;;0.21;59.53
50682;BME280;36779;52.168;20.878;2023-04-06T03:25:01;101016.96;;;0.19;59.62
50682;BME280;36779;52.168;20.878;2023-04-06T03:27:31;101019.70;;;0.18;59.47
50682;BME280;36779;52.168;20.878;2023-04-06T03:30:00;101018.89;;;0.16;59.48
50682;BME280;36779;52.168;20.878;2023-04-06T03:32:31;101019.37;;;0.14;59.53
50682;BME280;36779;52.168;20.878;2023-04-06T03:34:59;101021.00;;;0.12;59.60
50682;BME280;36779;52.168;20.878;2023-04-06T03:37:27;101024.60;;;0.11;59.67
50682;BME280;36779;52.168;20.878;2023-04-06T03:39:56;101024.68;;;0.09;59.65
50682;BME280;36779;52.168;20.878;2023-04-06T03:42:23;101023.91;;;0.07;59.60
50682;BME280;36779;52.168;20.878;2023-04-06T03:44:56;101020.73;;;0.05;59.51
50682;BME280;36779;52.168;20.878;2023-04-06T03:47:25;101016.33;;;0.02;59.65
50682;BME280;36779;52.168;20.878;2023-04-06T03:49:56;101016.34;;;-0.02;59.66
50682;BME280;36779;52.168;20.878;2023-04-06T03:52:24;101016.45;;;-0.04;59.65
50682;BME280;36779;52.168;20.878;2023-04-06T03:54:53;101017.63;;;-0.06;59.65
50682;BME280;36779;52.168;20.878;2023-04-06T03:57:21;101013.89;;;-0.09;59.72
50682;BME280;36779;52.168;20.878;2023-04-06T03:59:49;101019.09;;;-0.11;59.70
50682;BME280;36779;52.168;20.878;2023-04-06T04:02:17;101016.05;;;-0.13;59.80
50682;BME280;36779;52.168;20.878;2023-04-06T04:04:45;101016.69;;;-0.15;59.68
50682;BME280;36779;52.168;20.878;2023-04-06T04:07:13;101015.60;;;-0.18;59.70
50682;BME280;36779;52.168;20.878;2023-04-06T04:09:44;101019.20;;;-0.20;59.76
50682;BME280;36779;52.168;20.878;2023-04-06T04:12:12;101016.79;;;-0.21;59.86
50682;BME280;36779;52.168;20.878;2023-04-06T04:14:44;101020.87;;;-0.22;59.83
50682;BME280;36779;52.168;20.878;2023-04-06T04:17:17;101019.84;;;-0.22;60.00
50682;BME280;36779;52.168;20.878;2023-04-06T04:19:45;101020.70;;;-0.22;59.89
50682;BME280;36779;52.168;20.878;2023-04-06T04:22:14;101017.48;;;-0.21;59.95
50682;BME280;36779;52.168;20.878;2023-04-06T04:24:45;101017.44;;;-0.19;59.98
50682;BME280;36779;52.168;20.878;2023-04-06T04:27:13;101014.05;;;-0.18;60.08
50682;BME280;36779;52.168;20.878;2023-04-06T04:29:42;101012.57;;;-0.17;60.15
50682;BME280;36779;52.168;20.878;2023-04-06T04:32:14;101008.98;;;-0.15;60.07
50682;BME280;36779;52.168;20.878;2023-04-06T04:34:44;101010.27;;;-0.13;60.17
50682;BME280;36779;52.168;20.878;2023-04-06T04:37:19;101011.09;;;-0.12;60.17
50682;BME280;36779;52.168;20.878;2023-04-06T04:39:50;101007.12;;;-0.10;60.25
50682;BME280;36779;52.168;20.878;2023-04-06T04:42:18;101007.83;;;-0.06;60.27
50682;BME280;36779;52.168;20.878;2023-04-06T04:44:50;101007.70;;;-0.04;60.21
50682;BME280;36779;52.168;20.878;2023-04-06T04:47:27;101004.00;;;0.00;60.18
50682;BME280;36779;52.168;20.878;2023-04-06T04:49:56;101003.64;;;0.04;60.24
50682;BME280;36779;52.168;20.878;2023-04-06T04:52:24;101004.19;;;0.07;60.20
50682;BME280;36779;52.168;20.878;2023-04-06T04:54:58;100999.00;;;0.09;60.35
50682;BME280;36779;52.168;20.878;2023-04-06T04:57:28;101001.13;;;0.12;60.29
50682;BME280;36779;52.168;20.878;2023-04-06T04:59:56;100999.39;;;0.15;60.46
50682;BME280;36779;52.168;20.878;2023-04-06T05:02:24;100997.14;;;0.18;60.47
50682;BME280;36779;52.168;20.878;2023-04-06T05:05:19;100995.73;;;0.21;60.40
50682;BME280;36779;52.168;20.878;2023-04-06T05:07:47;100993.88;;;0.23;60.57
50682;BME280;36779;52.168;20.878;2023-04-06T05:10:24;100992.24;;;0.28;60.58
50682;BME280;36779;52.168;20.878;2023-04-06T05:12:58;100991.95;;;0.30;60.51
50682;BME280;36779;52.168;20.878;2023-04-06T05:15:26;100997.30;;;0.32;60.62
50682;BME280;36779;52.168;20.878;2023-04-06T05:17:57;100997.88;;;0.34;60.74
50682;BME280;36779;52.168;20.878;2023-04-06T05:20:30;100996.21;;;0.36;60.80
50682;BME280;36779;52.168;20.878;2023-04-06T05:23:00;100996.56;;;0.38;60.58
50682;BME280;36779;52.168;20.878;2023-04-06T05:25:28;100999.88;;;0.42;60.68
50682;BME280;36779;52.168;20.878;2023-04-06T05:28:13;100997.79;;;0.45;60.71
50682;BME280;36779;52.168;20.878;2023-04-06T05:30:41;100999.12;;;0.46;60.72
50682;BME280;36779;52.168;20.878;2023-04-06T05:33:09;100997.12;;;0.44;60.67
50682;BME280;36779;52.168;20.878;2023-04-06T05:36:04;101000.92;;;0.45;60.77
50682;BME280;36779;52.168;20.878;2023-04-06T05:38:38;101001.14;;;0.48;60.81
50682;BME280;36779;52.168;20.878;2023-04-06T05:41:16;100998.88;;;0.51;60.85
50682;BME280;36779;52.168;20.878;2023-04-06T05:43:45;100995.98;;;0.56;60.86
50682;BME280;36779;52.168;20.878;2023-04-06T05:46:12;100994.23;;;0.62;60.95
50682;BME280;36779;52.168;20.878;2023-04-06T05:48:43;100989.64;;;0.69;61.10
50682;BME280;36779;52.168;20.878;2023-04-06T05:51:12;100987.91;;;0.79;61.22
50682;BME280;36779;52.168;20.878;2023-04-06T05:53:46;100989.20;;;0.86;61.14
50682;BME280;36779;52.168;20.878;2023-04-06T05:56:16;100985.09;;;0.95;61.17
50682;BME280;36779;52.168;20.878;2023-04-06T05:58:44;100980.91;;;1.01;61.18
50682;BME280;36779;52.168;20.878;2023-04-06T06:01:14;100981.44;;;1.10;61.30
50682;BME280;36779;52.168;20.878;2023-04-06T06:03:46;100980.40;;;1.22;61.40
50682;BME280;36779;52.168;20.878;2023-04-06T06:06:14;100979.17;;;1.31;61.25
50682;BME280;36779;52.168;20.878;2023-04-06T06:09:07;100978.22;;;1.45;61.46
50682;BME280;36779;52.168;20.878;2023-04-06T06:11:39;100973.13;;;1.57;61.32
50682;BME280;36779;52.168;20.878;2023-04-06T06:14:08;100973.34;;;1.68;61.39
50682;BME280;36779;52.168;20.878;2023-04-06T06:16:38;100968.61;;;1.80;61.40
50682;BME280;36779;52.168;20.878;2023-04-06T06:19:07;100970.16;;;1.92;61.31
50682;BME280;36779;52.168;20.878;2023-04-06T06:21:35;100974.54;;;2.04;61.37
50682;BME280;36779;52.168;20.878;2023-04-06T06:24:11;100966.10;;;2.18;61.39
50682;BME280;36779;52.168;20.878;2023-04-06T06:26:43;100969.23;;;2.36;61.34
50682;BME280;36779;52.168;20.878;2023-04-06T06:29:11;100966.96;;;2.53;61.50
50682;BME280;36779;52.168;20.878;2023-04-06T06:31:39;100970.27;;;2.72;61.41
50682;BME280;36779;52.168;20.878;2023-04-06T06:34:07;100966.52;;;2.87;61.29
50682;BME280;36779;52.168;20.878;2023-04-06T06:36:35;100964.67;;;2.91;60.99
50682;BME280;36779;52.168;20.878;2023-04-06T06:39:06;100962.19;;;2.92;60.95
50682;BME280;36779;52.168;20.878;2023-04-06T06:41:35;100959.14;;;2.93;60.88
50682;BME280;36779;52.168;20.878;2023-04-06T06:44:03;100957.40;;;2.95;60.92
50682;BME280;36779;52.168;20.878;2023-04-06T06:46:30;100955.27;;;3.01;60.93
50682;BME280;36779;52.168;20.878;2023-04-06T06:49:00;100951.27;;;3.08;60.95
50682;BME280;36779;52.168;20.878;2023-04-06T06:51:31;100949.96;;;3.07;60.64
50682;BME280;36779;52.168;20.878;2023-04-06T06:54:01;100949.42;;;2.99;60.58
50682;BME280;36779;52.168;20.878;2023-04-06T06:56:29;100953.89;;;2.98;60.59
50682;BME280;36779;52.168;20.878;2023-04-06T06:58:58;100950.09;;;3.02;60.75
50682;BME280;36779;52.168;20.878;2023-04-06T07:01:25;100945.13;;;3.05;60.61
50682;BME280;36779;52.168;20.878;2023-04-06T07:03:55;100943.31;;;3.06;60.63
50682;BME280;36779;52.168;20.878;2023-04-06T07:06:23;100946.94;;;3.11;60.68
50682;BME280;36779;52.168;20.878;2023-04-06T07:08:51;100950.88;;;3.09;60.49
50682;BME280;36779;52.168;20.878;2023-04-06T07:11:19;100948.60;;;3.03;60.53
50682;BME280;36779;52.168;20.878;2023-04-06T07:13:46;100946.98;;;3.04;60.65
50682;BME280;36779;52.168;20.878;2023-04-06T07:16:17;100945.23;;;3.15;60.73
50682;BME280;36779;52.168;20.878;2023-04-06T07:18:45;100949.39;;;3.24;60.64
50682;BME280;36779;52.168;20.878;2023-04-06T07:21:16;100942.65;;;3.30;60.65
50682;BME280;36779;52.168;20.878;2023-04-06T07:23:44;100947.38;;;3.35;60.48
50682;BME280;36779;52.168;20.878;2023-04-06T07:26:12;100945.08;;;3.36;60.50
50682;BME280;36779;52.168;20.878;2023-04-06T07:28:43;100940.75;;;3.35;60.36
50682;BME280;36779;52.168;20.878;2023-04-06T07:31:20;100939.07;;;3.33;60.32
50682;BME280;36779;52.168;20.878;2023-04-06T07:33:49;100934.58;;;3.40;60.43
50682;BME280;36779;52.168;20.878;2023-04-06T07:36:17;100937.39;;;3.45;60.49
50682;BME280;36779;52.168;20.878;2023-04-06T07:38:46;100940.31;;;3.44;60.33
50682;BME280;36779;52.168;20.878;2023-04-06T07:41:14;100940.36;;;3.41;60.29
50682;BME280;36779;52.168;20.878;2023-04-06T07:43:45;100934.90;;;3.51;60.58
50682;BME280;36779;52.168;20.878;2023-04-06T07:46:13;100937.62;;;3.66;60.53
50682;BME280;36779;52.168;20.878;2023-04-06T07:48:45;100940.61;;;3.73;60.36
50682;BME280;36779;52.168;20.878;2023-04-06T07:51:14;100941.67;;;3.75;60.28
50682;BME280;36779;52.168;20.878;2023-04-06T07:53:44;100938.58;;;3.74;60.23
50682;BME280;36779;52.168;20.878;2023-04-06T07:56:12;100935.70;;;3.71;60.19
50682;BME280;36779;52.168;20.878;2023-04-06T07:58:43;100932.99;;;3.69;59.99
50682;BME280;36779;52.168;20.878;2023-04-06T08:01:11;100931.27;;;3.61;59.89
50682;BME280;36779;52.168;20.878;2023-04-06T08:03:39;100931.09;;;3.53;59.87
50682;BME280;36779;52.168;20.878;2023-04-06T08:06:10;100925.23;;;3.53;60.07
50682;BME280;36779;52.168;20.878;2023-04-06T08:08:43;100925.07;;;3.56;60.10
50682;BME280;36779;52.168;20.878;2023-04-06T08:11:11;100932.77;;;3.54;60.02
50682;BME280;36779;52.168;20.878;2023-04-06T08:13:47;100925.16;;;3.55;60.02
50682;BME280;36779;52.168;20.878;2023-04-06T08:16:17;100925.07;;;3.51;60.01
50682;BME280;36779;52.168;20.878;2023-04-06T08:18:46;100926.31;;;3.51;59.99
50682;BME280;36779;52.168;20.878;2023-04-06T08:21:14;100922.96;;;3.51;60.13
50682;BME280;36779;52.168;20.878;2023-04-06T08:23:44;100921.44;;;3.61;60.36
50682;BME280;36779;52.168;20.878;2023-04-06T08:26:13;100925.05;;;3.69;60.26
50682;BME280;36779;52.168;20.878;2023-04-06T08:28:42;100917.94;;;3.71;60.22
50682;BME280;36779;52.168;20.878;2023-04-06T08:31:13;100917.35;;;3.67;60.00
50682;BME280;36779;52.168;20.878;2023-04-06T08:33:43;100918.48;;;3.65;60.09
50682;BME280;36779;52.168;20.878;2023-04-06T08:36:13;100922.35;;;3.65;60.03
50682;BME280;36779;52.168;20.878;2023-04-06T08:38:45;100922.88;;;3.58;59.98
50682;BME280;36779;52.168;20.878;2023-04-06T08:41:13;100916.23;;;3.51;59.92
50682;BME280;36779;52.168;20.878;2023-04-06T08:43:49;100914.39;;;3.50;60.10
50682;BME280;36779;52.168;20.878;2023-04-06T08:46:17;100912.18;;;3.54;60.20
50682;BME280;36779;52.168;20.878;2023-04-06T08:48:45;100912.27;;;3.53;60.09
50682;BME280;36779;52.168;20.878;2023-04-06T08:51:17;100911.45;;;3.52;60.10
50682;BME280;36779;52.168;20.878;2023-04-06T08:53:44;100914.62;;;3.58;60.23
50682;BME280;36779;52.168;20.878;2023-04-06T08:56:16;100916.02;;;3.52;60.00
50682;BME280;36779;52.168;20.878;2023-04-06T08:58:45;100914.86;;;3.41;59.86
50682;BME280;36779;52.168;20.878;2023-04-06T09:01:13;100913.17;;;3.29;59.85
50682;BME280;36779;52.168;20.878;2023-04-06T09:03:43;100910.70;;;3.22;60.01
50682;BME280;36779;52.168;20.878;2023-04-06T09:06:12;100905.41;;;3.19;60.10
50682;BME280;36779;52.168;20.878;2023-04-06T09:08:44;100911.05;;;3.14;60.15
50682;BME280;36779;52.168;20.878;2023-04-06T09:11:12;100912.38;;;3.10;60.07
50682;BME280;36779;52.168;20.878;2023-04-06T09:13:44;100911.60;;;3.03;60.16
50682;BME280;36779;52.168;20.878;2023-04-06T09:16:12;100908.91;;;2.98;60.24
50682;BME280;36779;52.168;20.878;2023-04-06T09:18:41;100900.73;;;3.00;60.31
50682;BME280;36779;52.168;20.878;2023-04-06T09:21:10;100900.79;;;2.96;60.36
50682;BME280;36779;52.168;20.878;2023-04-06T09:23:43;100902.99;;;2.95;60.36
50682;BME280;36779;52.168;20.878;2023-04-06T09:26:13;100898.21;;;2.87;60.41
50682;BME280;36779;52.168;20.878;2023-04-06T09:28:43;100894.63;;;2.83;60.47
50682;BME280;36779;52.168;20.878;2023-04-06T09:31:12;100892.95;;;2.85;60.81
50682;BME280;36779;52.168;20.878;2023-04-06T09:33:41;100891.59;;;2.87;60.64
50682;BME280;36779;52.168;20.878;2023-04-06T09:36:11;100895.54;;;2.82;60.56
50682;BME280;36779;52.168;20.878;2023-04-06T09:38:50;100889.03;;;2.83;60.78
50682;BME280;36779;52.168;20.878;2023-04-06T09:41:21;100884.54;;;2.87;60.86
50682;BME280;36779;52.168;20.878;2023-04-06T09:43:50;100883.34;;;2.89;60.76
50682;BME280;36779;52.168;20.878;2023-04-06T09:46:17;100879.04;;;2.91;60.85
50682;BME280;36779;52.168;20.878;2023-04-06T09:48:48;100876.92;;;2.91;60.94
50682;BME280;36779;52.168;20.878;2023-04-06T09:51:20;100877.67;;;2.85;60.82
50682;BME280;36779;52.168;20.878;2023-04-06T09:53:51;100875.06;;;2.76;60.80
50682;BME280;36779;52.168;20.878;2023-04-06T09:56:20;100869.10;;;2.65;60.74
50682;BME280;36779;52.168;20.878;2023-04-06T09:58:51;100869.38;;;2.53;60.86
50682;BME280;36779;52.168;20.878;2023-04-06T10:01:22;100867.02;;;2.38;60.71
50682;BME280;36779;52.168;20.878;2023-04-06T10:03:56;100866.99;;;2.19;60.66
50682;BME280;36779;52.168;20.878;2023-04-06T10:06:28;100869.98;;;2.07;60.93
50682;BME280;36779;52.168;20.878;2023-04-06T10:09:00;100869.55;;;2.00;61.09
50682;BME280;36779;52.168;20.878;2023-04-06T10:11:29;100869.48;;;1.96;61.16
50682;BME280;36779;52.168;20.878;2023-04-06T10:13:58;100869.40;;;1.92;61.22
50682;BME280;36779;52.168;20.878;2023-04-06T10:16:26;100867.48;;;1.92;61.41
50682;BME280;36779;52.168;20.878;2023-04-06T10:18:55;100857.77;;;1.92;61.58
50682;BME280;36779;52.168;20.878;2023-04-06T10:21:24;100852.44;;;1.91;61.49
50682;BME280;36779;52.168;20.878;2023-04-06T10:23:54;100851.84;;;1.92;61.66
50682;BME280;36779;52.168;20.878;2023-04-06T10:26:25;100849.13;;;1.93;61.75
50682;BME280;36779;52.168;20.878;2023-04-06T10:28:53;100850.65;;;1.94;61.86
50682;BME280;36779;52.168;20.878;2023-04-06T10:31:25;100851.92;;;1.96;61.74
50682;BME280;36779;52.168;20.878;2023-04-06T10:33:54;100849.61;;;1.91;61.75
50682;BME280;36779;52.168;20.878;2023-04-06T10:36:23;100849.08;;;1.83;61.82
50682;BME280;36779;52.168;20.878;2023-04-06T10:38:54;100845.75;;;1.77;61.93
50682;BME280;36779;52.168;20.878;2023-04-06T10:41:23;100841.27;;;1.73;61.93
50682;BME280;36779;52.168;20.878;2023-04-06T10:43:56;100835.45;;;1.74;62.09
50682;BME280;36779;52.168;20.878;2023-04-06T10:46:27;100829.44;;;1.74;62.24
50682;BME280;36779;52.168;20.878;2023-04-06T10:48:56;100829.36;;;1.76;62.28
50682;BME280;36779;52.168;20.878;2023-04-06T10:51:25;100825.92;;;1.78;62.29
50682;BME280;36779;52.168;20.878;2023-04-06T10:53:55;100829.08;;;1.80;62.53
50682;BME280;36779;52.168;20.878;2023-04-06T10:56:24;100825.73;;;1.81;62.46
50682;BME280;36779;52.168;20.878;2023-04-06T10:58:55;100820.66;;;1.80;62.52
50682;BME280;36779;52.168;20.878;2023-04-06T11:01:27;100821.67;;;1.78;62.49
50682;BME280;36779;52.168;20.878;2023-04-06T11:03:55;100819.33;;;1.79;62.57
50682;BME280;36779;52.168;20.878;2023-04-06T11:06:27;100818.40;;;1.83;62.77
50682;BME280;36779;52.168;20.878;2023-04-06T11:08:56;100815.41;;;1.83;62.82
50682;BME280;36779;52.168;20.878;2023-04-06T11:11:25;100812.36;;;1.81;62.73
50682;BME280;36779;52.168;20.878;2023-04-06T11:13:54;100810.57;;;1.82;63.01
50682;BME280;36779;52.168;20.878;2023-04-06T11:16:24;100810.42;;;1.87;63.17
50682;BME280;36779;52.168;20.878;2023-04-06T11:18:53;100809.85;;;1.94;63.09
50682;BME280;36779;52.168;20.878;2023-04-06T11:21:32;100810.44;;;2.01;63.21
50682;BME280;36779;52.168;20.878;2023-04-06T11:24:09;100801.25;;;2.07;63.24
50682;BME280;36779;52.168;20.878;2023-04-06T11:26:41;100800.23;;;2.12;63.21
50682;BME280;36779;52.168;20.878;2023-04-06T11:29:11;100800.10;;;2.15;63.19
50682;BME280;36779;52.168;20.878;2023-04-06T11:31:41;100795.45;;;2.16;63.42
50682;BME280;36779;52.168;20.878;2023-04-06T11:34:12;100794.29;;;2.15;63.32
50682;BME280;36779;52.168;20.878;2023-04-06T11:36:41;100792.23;;;2.11;63.34
50682;BME280;36779;52.168;20.878;2023-04-06T11:39:09;100789.40;;;2.09;63.37
50682;BME280;36779;52.168;20.878;2023-04-06T11:41:40;100783.85;;;2.05;63.35
50682;BME280;36779;52.168;20.878;2023-04-06T11:44:08;100778.78;;;2.05;63.48
50682;BME280;36779;52.168;20.878;2023-04-06T11:46:39;100780.89;;;2.10;63.54
50682;BME280;36779;52.168;20.878;2023-04-06T11:49:06;100783.45;;;2.15;63.65
50682;BME280;36779;52.168;20.878;2023-04-06T11:51:36;100780.81;;;2.17;63.71
50682;BME280;36779;52.168;20.878;2023-04-06T11:54:04;100781.84;;;2.18;63.66
50682;BME280;36779;52.168;20.878;2023-04-06T11:56:31;100780.61;;;2.09;63.59
50682;BME280;36779;52.168;20.878;2023-04-06T11:59:02;100771.30;;;2.04;63.66
50682;BME280;36779;52.168;20.878;2023-04-06T12:01:31;100769.66;;;2.02;63.86
50682;BME280;36779;52.168;20.878;2023-04-06T12:04:06;100768.85;;;2.01;63.84
50682;BME280;36779;52.168;20.878;2023-04-06T12:06:34;100767.13;;;1.98;63.89
50682;BME280;36779;52.168;20.878;2023-04-06T12:09:02;100763.21;;;1.97;63.99
50682;BME280;36779;52.168;20.878;2023-04-06T12:11:30;100758.83;;;1.96;64.19
50682;BME280;36779;52.168;20.878;2023-04-06T12:13:58;100751.80;;;1.99;64.18
50682;BME280;36779;52.168;20.878;2023-04-06T12:16:28;100747.86;;;2.01;64.20
50682;BME280;36779;52.168;20.878;2023-04-06T12:18:56;100747.48;;;2.01;64.18
50682;BME280;36779;52.168;20.878;2023-04-06T12:21:24;100745.89;;;2.04;64.39
50682;BME280;36779;52.168;20.878;2023-04-06T12:23:52;100743.27;;;2.06;64.45
50682;BME280;36779;52.168;20.878;2023-04-06T12:26:20;100735.05;;;2.06;64.52
50682;BME280;36779;52.168;20.878;2023-04-06T12:28:48;100731.29;;;2.08;64.52
50682;BME280;36779;52.168;20.878;2023-04-06T12:31:16;100724.31;;;2.10;64.57
50682;BME280;36779;52.168;20.878;2023-04-06T12:33:47;100720.39;;;2.13;64.70
50682;BME280;36779;52.168;20.878;2023-04-06T12:36:19;100719.90;;;2.19;64.66
50682;BME280;36779;52.168;20.878;2023-04-06T12:38:47;100722.08;;;2.23;64.84
50682;BME280;36779;52.168;20.878;2023-04-06T12:41:15;100727.98;;;2.26;64.87
50682;BME280;36779;52.168;20.878;2023-04-06T12:43:44;100734.02;;;2.30;64.77
50682;BME280;36779;52.168;20.878;2023-04-06T12:46:12;100736.24;;;2.31;64.81
50682;BME280;36779;52.168;20.878;2023-04-06T12:48:45;100727.95;;;2.32;64.83
50682;BME280;36779;52.168;20.878;2023-04-06T12:51:14;100729.34;;;2.32;64.83
50682;BME280;36779;52.168;20.878;2023-04-06T12:53:44;100726.09;;;2.31;64.83
50682;BME280;36779;52.168;20.878;2023-04-06T12:56:13;100727.71;;;2.30;64.90
50682;BME280;36779;52.168;20.878;2023-04-06T12:58:41;100719.96;;;2.31;64.92
50682;BME280;36779;52.168;20.878;2023-04-06T13:01:09;100714.13;;;2.31;65.01
50682;BME280;36779;52.168;20.878;2023-04-06T13:03:41;100716.21;;;2.32;65.10
50682;BME280;36779;52.168;20.878;2023-04-06T13:06:12;100716.42;;;2.31;65.04